Time;durP1;ratioP1;P1;durP2;ratioP2;P2;SDS_P1;SDS_P2;PMS_P1;PMS_P2;Temp;Humidity;BMP_temperature;BMP_pressure;BME280_temperature;BME280_humidity;BME280_pressure;Samples;Min_cycle;Max_cycle;Signal;HPM_P1;HPM_P2
2024/04/12 00:08:22;;;;;;;4.65;2.50;;;8.80;99.90;;;;;;22712255;26;20362;-38
2024/04/12 00:18:28;;;;;;;4.60;2.53;;;8.80;99.90;;;;;;22610776;26;20026;-39
2024/04/12 00:28:31;;;;;;;3.40;2.50;;;8.70;99.90;;;;;;22699290;26;20026;-39
2024/04/12 00:38:38;;;;;;;4.32;2.60;;;8.60;99.90;;;;;;22715213;26;20456;-39
2024/04/12 00:48:44;;;;;;;5.00;2.67;;;8.60;99.90;;;;;;22673355;26;20066;-39
2024/04/12 00:58:47;;;;;;;3.50;2.42;;;8.70;99.90;;;;;;22562487;26;20065;-39
2024/04/12 01:08:51;;;;;;;5.47;3.10;;;8.40;99.90;;;;;;22598744;26;20387;-38
2024/04/12 01:18:55;;;;;;;7.97;3.03;;;8.30;99.90;;;;;;22559755;26;20026;-38
2024/04/12 01:28:58;;;;;;;6.22;2.90;;;8.40;99.90;;;;;;22655434;26;20097;-38
2024/04/12 01:39:11;;;;;;;4.00;2.75;;;8.40;99.90;;;;;;22629273;26;20021;-39
2024/04/12 01:49:14;;;;;;;4.78;3.10;;;8.40;99.90;;;;;;22650414;26;20031;-39
2024/04/12 01:59:21;;;;;;;4.55;3.00;;;8.20;99.90;;;;;;22573144;26;20027;-38
2024/04/12 02:09:28;;;;;;;4.95;2.85;;;8.10;99.90;;;;;;22562986;26;20096;-39
2024/04/12 02:19:30;;;;;;;6.97;3.08;;;8.20;99.90;;;;;;22527680;26;20385;-38
2024/04/12 02:29:34;;;;;;;3.58;3.10;;;8.60;99.90;;;;;;22708447;26;20030;-39
2024/04/12 02:39:40;;;;;;;4.35;3.08;;;8.40;99.90;;;;;;22613923;26;20039;-40
2024/04/12 02:49:43;;;;;;;4.40;3.00;;;8.20;99.90;;;;;;22559235;26;20038;-39
2024/04/12 02:59:52;;;;;;;5.28;3.00;;;8.10;99.90;;;;;;22580543;26;20058;-38
2024/04/12 03:09:56;;;;;;;4.00;3.05;;;8.20;99.90;;;;;;22638187;26;20027;-39
2024/04/12 03:19:58;;;;;;;5.57;2.92;;;8.00;99.90;;;;;;22567613;26;20868;-39
2024/04/12 03:29:59;;;;;;;4.78;3.13;;;8.00;99.90;;;;;;22698296;26;20027;-39
2024/04/12 03:40:01;;;;;;;5.15;3.17;;;8.00;99.90;;;;;;22576370;26;20031;-38
2024/04/12 03:50:13;;;;;;;4.82;3.22;;;8.10;99.90;;;;;;22529184;26;20046;-39
2024/04/12 04:00:14;;;;;;;5.03;3.45;;;8.10;99.90;;;;;;22670878;26;20379;-38
2024/04/12 04:10:21;;;;;;;5.47;3.17;;;7.90;99.90;;;;;;22618458;26;20034;-38
2024/04/12 04:20:27;;;;;;;5.15;3.53;;;8.00;99.90;;;;;;22669036;26;20041;-39
2024/04/12 04:30:29;;;;;;;7.15;3.42;;;8.00;99.90;;;;;;22668492;26;20002;-41
2024/04/12 04:40:35;;;;;;;6.25;3.25;;;8.00;99.90;;;;;;22592537;26;20119;-39
2024/04/12 04:50:41;;;;;;;5.00;3.13;;;8.10;99.90;;;;;;22609370;26;20107;-38
2024/04/12 05:00:45;;;;;;;5.28;3.42;;;8.00;99.90;;;;;;22563642;26;20093;-38
2024/04/12 05:10:48;;;;;;;4.03;3.05;;;7.90;99.90;;;;;;22587204;26;20088;-38
2024/04/12 05:20:50;;;;;;;4.55;2.90;;;8.20;99.90;;;;;;22578515;26;20034;-39
2024/04/12 05:30:54;;;;;;;6.63;3.00;;;8.30;99.90;;;;;;22575053;26;20034;-38
2024/04/12 05:40:57;;;;;;;5.35;2.80;;;8.70;99.90;;;;;;22592434;26;20038;-39
2024/04/12 05:50:58;;;;;;;4.82;2.95;;;8.90;99.90;;;;;;22564292;26;20026;-39
2024/04/12 06:01:01;;;;;;;3.20;2.70;;;9.10;99.90;;;;;;22552936;26;20023;-39
2024/04/12 06:11:08;;;;;;;3.42;2.50;;;9.40;99.90;;;;;;22562210;26;20038;-39
2024/04/12 06:21:10;;;;;;;4.75;3.00;;;9.60;99.90;;;;;;22582371;26;20539;-39
2024/04/12 06:31:19;;;;;;;2.67;2.28;;;9.80;99.90;;;;;;22676325;26;20039;-38
2024/04/12 06:41:23;;;;;;;5.87;2.40;;;10.40;99.90;;;;;;22604948;26;20027;-42
2024/04/12 06:51:25;;;;;;;3.17;1.88;;;11.80;99.90;;;;;;22553014;26;20035;-42
2024/04/12 07:01:27;;;;;;;5.22;2.00;;;13.50;99.90;;;;;;22550390;26;20096;-42
2024/04/12 07:11:32;;;;;;;4.03;1.85;;;14.80;99.90;;;;;;22516208;26;20116;-42
2024/04/12 07:21:35;;;;;;;5.05;1.77;;;16.10;99.90;;;;;;22548276;26;20038;-46
2024/04/12 07:31:38;;;;;;;1.92;1.73;;;17.30;99.90;;;;;;22545380;26;20383;-45
2024/04/12 07:41:48;;;;;;;3.42;2.00;;;18.10;99.90;;;;;;22657003;26;20004;-44
2024/04/12 07:51:50;;;;;;;8.10;2.15;;;18.40;99.90;;;;;;22590283;26;20027;-43
2024/04/12 08:01:52;;;;;;;5.05;2.15;;;18.70;99.90;;;;;;22546250;26;20074;-47
2024/04/12 08:11:58;;;;;;;2.78;2.00;;;19.40;99.90;;;;;;22546341;26;20038;-43
2024/04/12 08:22:02;;;;;;;4.05;1.90;;;19.60;99.90;;;;;;22547066;26;20031;-43
2024/04/12 08:42:14;;;;;;;4.90;2.38;;;20.20;98.30;;;;;;22551882;26;20065;-43
2024/04/12 08:52:30;;;;;;;9.68;2.33;;;20.20;97.10;;;;;;22328316;26;20081;-42
2024/04/12 09:02:48;;;;;;;4.07;2.17;;;20.10;96.70;;;;;;22247852;26;20024;-45
2024/04/12 09:12:49;;;;;;;5.82;2.28;;;20.50;98.90;;;;;;22361047;26;20008;-43
2024/04/12 09:22:54;;;;;;;4.20;2.50;;;20.80;98.20;;;;;;22506413;26;20014;-43
2024/04/12 09:33:16;;;;;;;3.22;2.65;;;20.90;98.30;;;;;;22546801;26;20031;-44
2024/04/12 10:45:09;;;;;;;5.70;3.22;;;21.30;99.90;;;;;;22548276;26;20034;-41
2024/04/12 10:55:16;;;;;;;5.28;3.67;;;21.30;99.90;;;;;;22546234;26;20084;-44
2024/04/12 11:35:45;;;;;;;5.88;4.97;;;21.30;99.90;;;;;;22549511;26;20030;-41
2024/04/12 11:45:48;;;;;;;7.18;5.53;;;21.50;99.90;;;;;;22548400;26;20492;-41
2024/04/12 11:55:50;;;;;;;14.38;7.00;;;21.70;99.90;;;;;;22547170;26;20897;-41
2024/04/12 12:05:53;;;;;;;9.07;5.93;;;21.90;99.90;;;;;;22552366;26;20035;-42
2024/04/12 12:15:55;;;;;;;11.68;6.78;;;22.00;99.90;;;;;;22557973;26;20026;-41
2024/04/12 12:25:58;;;;;;;10.88;7.65;;;22.00;99.90;;;;;;22563222;26;20030;-41
2024/04/12 12:36:05;;;;;;;12.80;8.15;;;21.70;99.60;;;;;;22562930;26;20360;-42
2024/04/12 12:46:07;;;;;;;10.55;8.93;;;22.00;99.90;;;;;;22555011;26;20101;-42
2024/04/12 12:56:09;;;;;;;8.60;7.70;;;22.20;99.90;;;;;;22561539;26;20030;-43
2024/04/12 13:06:21;;;;;;;9.70;8.05;;;22.00;99.90;;;;;;22527844;26;20038;-43
2024/04/12 13:16:22;;;;;;;10.13;8.52;;;22.20;99.90;;;;;;22551832;26;20097;-42
2024/04/12 13:26:26;;;;;;;10.88;7.78;;;22.30;99.90;;;;;;22555112;26;20043;-42
2024/04/12 13:36:31;;;;;;;14.73;10.23;;;22.20;99.90;;;;;;22552230;26;20013;-41
2024/04/12 13:56:57;;;;;;;12.77;8.52;;;22.00;99.90;;;;;;22547963;26;20031;-41
2024/04/12 14:07:00;;;;;;;12.45;9.63;;;22.10;99.90;;;;;;22550661;26;20148;-42
2024/04/12 14:17:05;;;;;;;12.48;9.15;;;21.70;99.90;;;;;;22552739;26;20027;-42
2024/04/12 14:27:07;;;;;;;10.00;8.85;;;21.60;99.90;;;;;;22549932;26;20550;-42
2024/04/12 14:37:13;;;;;;;15.20;10.32;;;21.40;99.90;;;;;;22554386;26;20476;-42
2024/04/12 14:47:15;;;;;;;11.48;8.50;;;21.10;99.90;;;;;;22551780;26;20030;-43
2024/04/12 14:57:17;;;;;;;11.20;8.27;;;21.00;99.90;;;;;;22561659;26;20070;-42
2024/04/12 15:48:40;;;;;;;11.27;8.68;;;18.00;99.90;;;;;;22544873;26;20052;-41
2024/04/12 16:19:26;;;;;;;13.20;10.50;;;16.70;99.90;;;;;;22542049;26;20038;-40
2024/04/12 16:29:31;;;;;;;12.57;6.63;;;16.00;99.90;;;;;;22521741;26;20018;-39
2024/04/12 16:39:32;;;;;;;12.25;8.02;;;15.30;99.90;;;;;;22387299;26;19996;-39
2024/04/12 16:49:34;;;;;;;13.95;8.52;;;14.70;99.90;;;;;;22395423;26;20049;-39
2024/04/12 16:59:39;;;;;;;12.95;7.70;;;14.10;99.90;;;;;;22295479;26;20032;-40
2024/04/12 17:09:41;;;;;;;11.65;6.38;;;13.50;99.90;;;;;;22400116;26;20031;-39
2024/04/12 17:19:43;;;;;;;23.23;13.98;;;12.90;99.90;;;;;;22415388;26;20039;-39
2024/04/12 17:29:49;;;;;;;16.55;10.85;;;12.70;99.90;;;;;;22516988;26;20577;-44
2024/04/12 17:39:51;;;;;;;7.05;5.10;;;12.40;99.90;;;;;;22591097;26;20039;-39
2024/04/12 17:49:55;;;;;;;9.35;5.93;;;12.00;99.90;;;;;;22564234;26;20060;-38
2024/04/12 17:59:57;;;;;;;10.00;5.60;;;11.80;99.90;;;;;;22577290;26;20100;-39
2024/04/12 18:09:59;;;;;;;8.20;5.00;;;11.50;99.90;;;;;;22590161;26;20030;-39
2024/04/12 18:20:09;;;;;;;7.05;4.88;;;11.30;99.90;;;;;;22565441;26;20613;-39
2024/04/12 18:30:11;;;;;;;11.60;6.03;;;11.10;99.90;;;;;;22565067;26;20035;-39
2024/04/12 18:50:33;;;;;;;;;;;11.10;99.90;;;;;;22541079;26;20491;-40
2024/04/12 19:00:36;;;;;;;11.65;5.68;;;11.10;99.90;;;;;;22702597;26;19979;-39
2024/04/12 19:10:40;;;;;;;8.60;4.78;;;11.00;99.90;;;;;;22613592;26;20476;-39
2024/04/12 19:20:42;;;;;;;6.68;3.95;;;11.20;99.90;;;;;;22649500;26;20050;-39
2024/04/12 19:30:46;;;;;;;4.85;3.55;;;11.10;99.90;;;;;;22704111;26;20549;-39
2024/04/12 19:40:58;;;;;;;8.30;3.83;;;11.00;99.90;;;;;;22702736;26;20034;-39
2024/04/12 19:51:03;;;;;;;13.93;8.40;;;11.00;99.90;;;;;;22615858;26;20030;-39
2024/04/12 20:01:09;;;;;;;5.30;3.90;;;11.00;99.90;;;;;;22644352;26;20089;-39
2024/04/12 20:11:12;;;;;;;105.35;53.53;;;11.00;99.90;;;;;;22555079;26;20043;-39
2024/04/12 20:21:14;;;;;;;18.20;11.10;;;10.90;99.90;;;;;;22579572;26;20361;-39
2024/04/12 20:41:26;;;;;;;6.90;3.50;;;10.70;99.90;;;;;;22541343;26;20035;-40
2024/04/12 20:51:29;;;;;;;17.02;6.85;;;10.60;99.90;;;;;;22592571;26;20471;-39
2024/04/12 21:01:44;;;;;;;8.13;3.85;;;10.50;99.90;;;;;;22572316;26;20043;-39
2024/04/12 21:11:47;;;;;;;6.80;3.33;;;10.40;99.90;;;;;;22670429;26;20027;-39
2024/04/12 21:21:49;;;;;;;10.00;4.47;;;10.30;99.90;;;;;;22711430;26;20038;-40
2024/04/12 21:31:51;;;;;;;7.85;3.70;;;10.20;99.90;;;;;;22703088;26;20038;-39
2024/04/12 21:41:53;;;;;;;5.13;3.40;;;10.20;99.90;;;;;;22668166;26;20026;-39
2024/04/12 21:51:55;;;;;;;8.80;4.07;;;10.30;99.90;;;;;;22622866;26;20564;-39
2024/04/12 22:01:57;;;;;;;8.20;3.13;;;10.10;99.90;;;;;;22536902;26;20514;-39
2024/04/12 22:11:58;;;;;;;9.68;3.95;;;10.20;99.90;;;;;;22529366;26;20030;-38
2024/04/12 22:22:00;;;;;;;10.73;4.35;;;10.10;99.90;;;;;;22595566;26;20026;-39
2024/04/12 22:32:02;;;;;;;10.48;4.32;;;10.00;99.90;;;;;;22575412;26;20435;-39
2024/04/12 22:42:04;;;;;;;8.98;4.35;;;10.00;99.90;;;;;;22553761;26;20055;-39
2024/04/12 22:52:06;;;;;;;10.38;4.72;;;9.90;99.90;;;;;;22592957;26;20034;-39
2024/04/12 23:02:08;;;;;;;9.95;4.55;;;9.70;99.90;;;;;;22700056;26;20472;-39
2024/04/12 23:12:10;;;;;;;9.07;4.38;;;9.80;99.90;;;;;;22583774;26;20031;-38
2024/04/12 23:22:13;;;;;;;9.25;4.78;;;9.90;99.90;;;;;;22571571;26;20023;-39
2024/04/12 23:32:15;;;;;;;8.55;4.20;;;9.70;99.90;;;;;;22555194;26;20030;-39
2024/04/12 23:42:17;;;;;;;5.35;3.95;;;9.60;99.90;;;;;;22593062;26;20035;-39
2024/04/12 23:52:25;;;;;;;12.35;5.25;;;9.80;99.90;;;;;;22556349;26;20050;-39
